Time;durP1;ratioP1;P1;durP2;ratioP2;P2;SDS_P1;SDS_P2;PMS_P1;PMS_P2;Temp;Humidity;BMP_temperature;BMP_pressure;BME280_temperature;BME280_humidity;BME280_pressure;Samples;Min_cycle;Max_cycle;Signal;HPM_P1;HPM_P2
2021/07/17 00:01:13;;;;;;;20.08;5.75;;;20.60;80.40;;;;;;5090147;28;20142;-68
2021/07/17 00:03:39;;;;;;;21.23;5.25;;;20.60;80.50;;;;;;5091354;28;20040;-68
2021/07/17 00:06:05;;;;;;;20.45;6.85;;;20.50;80.70;;;;;;5045717;28;20660;-68
2021/07/17 00:08:32;;;;;;;25.80;6.18;;;20.40;81.40;;;;;;5074757;28;20035;-68
2021/07/17 00:10:58;;;;;;;27.13;6.07;;;20.40;81.70;;;;;;5091555;28;20043;-68
2021/07/17 00:13:24;;;;;;;17.10;5.10;;;20.30;81.90;;;;;;5063957;28;20039;-68
2021/07/17 00:15:53;;;;;;;18.02;6.43;;;20.20;82.50;;;;;;5076697;28;20511;-68
2021/07/17 00:18:19;;;;;;;18.50;5.07;;;20.10;83.30;;;;;;5091970;28;20090;-68
2021/07/17 00:20:47;;;;;;;19.35;4.20;;;20.00;84.00;;;;;;5090799;28;20044;-67
2021/07/17 00:23:14;;;;;;;18.20;5.32;;;20.00;84.50;;;;;;5091857;28;20034;-68
2021/07/17 00:25:40;;;;;;;16.65;5.05;;;19.90;84.90;;;;;;5089263;28;20038;-67
2021/07/17 00:28:07;;;;;;;18.00;4.10;;;19.90;85.40;;;;;;5089350;28;20115;-67
2021/07/17 00:30:33;;;;;;;18.35;4.45;;;19.90;85.50;;;;;;5090360;28;20062;-68
2021/07/17 00:32:59;;;;;;;14.77;5.20;;;19.90;85.70;;;;;;5090480;28;20424;-68
2021/07/17 00:35:24;;;;;;;21.70;5.65;;;19.80;86.10;;;;;;5092318;28;20028;-67
2021/07/17 00:37:50;;;;;;;17.80;4.20;;;19.70;86.40;;;;;;5074625;28;20043;-67
2021/07/17 00:40:20;;;;;;;18.00;5.03;;;19.60;86.50;;;;;;5091768;28;20035;-68
2021/07/17 00:42:48;;;;;;;22.00;5.10;;;19.60;87.00;;;;;;5095372;28;20044;-68
2021/07/17 00:45:14;;;;;;;20.27;6.28;;;19.50;87.30;;;;;;5081842;28;20130;-68
2021/07/17 00:47:40;;;;;;;22.98;5.18;;;19.50;87.60;;;;;;5095444;28;20044;-68
2021/07/17 00:50:09;;;;;;;20.77;4.22;;;19.60;87.60;;;;;;5093527;28;20096;-68
2021/07/17 00:52:35;;;;;;;19.30;4.75;;;19.60;87.40;;;;;;5095413;28;20040;-68
2021/07/17 00:55:03;;;;;;;16.33;4.43;;;19.60;87.50;;;;;;5095271;28;20051;-67
2021/07/17 00:57:33;;;;;;;16.02;3.95;;;19.60;87.40;;;;;;5095518;28;20040;-68
2021/07/17 01:00:00;;;;;;;16.40;4.15;;;19.60;87.50;;;;;;5093507;28;20492;-68
2021/07/17 01:02:26;;;;;;;21.17;4.72;;;19.60;87.70;;;;;;5093365;28;20047;-67
2021/07/17 01:04:53;;;;;;;17.98;4.60;;;19.50;88.00;;;;;;5075374;28;20161;-67
2021/07/17 01:07:19;;;;;;;20.45;5.07;;;19.50;88.10;;;;;;5094695;28;20109;-68
2021/07/17 01:09:46;;;;;;;17.35;4.72;;;19.50;88.20;;;;;;5075691;28;20032;-68
2021/07/17 01:12:12;;;;;;;19.60;4.38;;;19.50;87.90;;;;;;5093025;28;20080;-67
2021/07/17 01:14:39;;;;;;;14.27;3.30;;;19.50;87.90;;;;;;5076278;28;20038;-68
2021/07/17 01:17:05;;;;;;;16.92;4.00;;;19.40;87.80;;;;;;5097597;28;20107;-68
2021/07/17 01:19:31;;;;;;;15.85;3.70;;;19.40;87.90;;;;;;5093600;28;20240;-65
2021/07/17 01:21:57;;;;;;;22.65;4.43;;;19.40;88.10;;;;;;5093125;28;20035;-65
2021/07/17 01:24:24;;;;;;;14.32;4.43;;;19.40;88.20;;;;;;5094299;28;20184;-65
2021/07/17 01:26:52;;;;;;;20.77;4.50;;;19.40;88.00;;;;;;5093770;28;20036;-67
2021/07/17 01:29:18;;;;;;;13.43;3.35;;;19.30;88.30;;;;;;5075964;28;20039;-65
2021/07/17 01:31:45;;;;;;;19.17;4.30;;;19.30;88.20;;;;;;5089709;28;20040;-65
2021/07/17 01:34:11;;;;;;;20.15;4.85;;;19.30;88.30;;;;;;5075153;28;20038;-65
2021/07/17 01:36:38;;;;;;;17.67;3.75;;;19.30;88.20;;;;;;5093667;28;20110;-65
2021/07/17 01:39:05;;;;;;;14.70;3.88;;;19.30;88.30;;;;;;5063499;28;20477;-65
2021/07/17 01:41:31;;;;;;;22.13;4.60;;;19.30;88.60;;;;;;5062201;28;20132;-65
2021/07/17 01:43:57;;;;;;;16.25;3.85;;;19.20;88.80;;;;;;5092770;28;20125;-65
2021/07/17 01:46:26;;;;;;;20.75;3.78;;;19.20;88.90;;;;;;5092349;28;20047;-64
2021/07/17 01:48:53;;;;;;;19.25;4.05;;;19.20;88.70;;;;;;5092857;28;20032;-64
2021/07/17 01:51:20;;;;;;;15.23;3.42;;;19.20;88.80;;;;;;5091459;28;20048;-64
2021/07/17 01:53:46;;;;;;;12.80;3.92;;;19.20;88.90;;;;;;5063616;28;20036;-65
2021/07/17 01:56:15;;;;;;;9.93;3.25;;;19.10;89.00;;;;;;5092642;28;20576;-65
2021/07/17 01:58:42;;;;;;;17.55;4.80;;;19.10;89.20;;;;;;5094520;28;20035;-65
2021/07/17 02:01:07;;;;;;;14.43;3.80;;;19.10;89.20;;;;;;5091084;28;20043;-64
2021/07/17 02:03:33;;;;;;;13.73;3.83;;;19.10;89.20;;;;;;5091165;28;20441;-65
2021/07/17 02:05:59;;;;;;;17.17;4.07;;;19.10;89.60;;;;;;5057442;28;20047;-65
2021/07/17 02:08:27;;;;;;;15.07;3.95;;;19.10;89.40;;;;;;5075562;28;20372;-65
2021/07/17 02:10:55;;;;;;;20.75;4.07;;;19.10;89.60;;;;;;5063749;28;20106;-64
2021/07/17 02:13:20;;;;;;;19.17;4.30;;;19.10;89.70;;;;;;5072728;28;20040;-64
2021/07/17 02:15:49;;;;;;;18.30;4.30;;;19.10;89.90;;;;;;5062396;28;20796;-64
2021/07/17 02:18:24;;;;;;;17.77;4.28;;;19.10;90.00;;;;;;5094745;28;20039;-64
2021/07/17 02:20:50;;;;;;;24.02;4.22;;;19.00;90.00;;;;;;5072504;28;20572;-65
2021/07/17 02:23:16;;;;;;;16.92;4.07;;;19.10;90.10;;;;;;5091348;28;20032;-64
2021/07/17 02:25:42;;;;;;;12.88;3.78;;;19.10;90.00;;;;;;5073575;28;20035;-64
2021/07/17 02:28:08;;;;;;;16.70;3.50;;;19.10;90.10;;;;;;5066073;28;20104;-64
2021/07/17 02:30:34;;;;;;;16.13;4.40;;;19.10;90.00;;;;;;5074575;28;20043;-64
2021/07/17 02:33:00;;;;;;;13.52;3.90;;;19.10;90.10;;;;;;5090031;28;20124;-64
2021/07/17 02:35:26;;;;;;;14.95;4.05;;;19.10;90.00;;;;;;5093126;28;20114;-64
2021/07/17 02:37:52;;;;;;;19.10;3.67;;;19.00;89.80;;;;;;5093300;28;20031;-64
2021/07/17 02:40:18;;;;;;;19.90;3.53;;;19.00;89.90;;;;;;5091498;28;20952;-64
2021/07/17 02:42:43;;;;;;;17.35;3.53;;;19.00;90.00;;;;;;5091138;28;20040;-64
2021/07/17 02:45:11;;;;;;;17.73;3.83;;;19.00;90.00;;;;;;5073192;28;20118;-65
2021/07/17 02:47:37;;;;;;;14.73;4.05;;;19.00;89.90;;;;;;5091429;28;20583;-65
2021/07/17 02:50:04;;;;;;;11.00;4.25;;;19.00;90.00;;;;;;5061841;28;20040;-65
2021/07/17 02:52:30;;;;;;;16.95;3.67;;;19.00;90.10;;;;;;5090591;28;20036;-65
2021/07/17 02:54:56;;;;;;;17.08;3.20;;;18.90;90.10;;;;;;5092059;28;20043;-65
2021/07/17 02:57:22;;;;;;;16.88;3.70;;;18.90;90.10;;;;;;5092486;28;20055;-64
2021/07/17 02:59:48;;;;;;;19.30;4.32;;;18.90;90.30;;;;;;5058922;28;20069;-64
2021/07/17 03:02:14;;;;;;;21.63;4.20;;;18.90;90.20;;;;;;5089984;28;20047;-64
2021/07/17 03:04:39;;;;;;;17.75;3.90;;;18.90;90.20;;;;;;5073319;28;20084;-64
2021/07/17 03:07:05;;;;;;;17.20;3.05;;;18.90;90.20;;;;;;5072813;28;20450;-65
2021/07/17 03:09:31;;;;;;;19.00;3.92;;;18.80;90.30;;;;;;5092137;28;20044;-64
2021/07/17 03:11:58;;;;;;;18.20;4.05;;;18.90;90.30;;;;;;5092786;28;20510;-64
2021/07/17 03:14:24;;;;;;;21.90;4.10;;;18.90;90.30;;;;;;5072912;28;20040;-64
2021/07/17 03:16:50;;;;;;;18.83;4.05;;;18.90;90.40;;;;;;5091115;28;20042;-64
2021/07/17 03:19:16;;;;;;;20.45;4.85;;;18.90;90.30;;;;;;5062815;28;22216;-64
2021/07/17 03:21:43;;;;;;;17.80;3.85;;;18.90;90.20;;;;;;5088491;28;20074;-64
2021/07/17 03:24:09;;;;;;;16.40;3.47;;;18.90;90.30;;;;;;5090779;28;20114;-64
2021/07/17 03:26:35;;;;;;;14.05;3.30;;;18.90;90.30;;;;;;5090825;28;20046;-64
2021/07/17 03:29:01;;;;;;;13.93;3.30;;;18.90;90.30;;;;;;5074456;28;20040;-64
2021/07/17 03:31:28;;;;;;;14.95;3.67;;;18.90;90.40;;;;;;5090649;28;20044;-65
2021/07/17 03:33:57;;;;;;;14.90;3.35;;;18.90;90.30;;;;;;5089636;28;20066;-64
2021/07/17 03:36:23;;;;;;;16.23;3.72;;;18.80;90.30;;;;;;5091859;28;20036;-65
2021/07/17 03:38:49;;;;;;;14.63;3.22;;;18.80;90.20;;;;;;5092258;28;20476;-64
2021/07/17 03:41:16;;;;;;;13.90;3.10;;;18.80;90.30;;;;;;5090702;28;20040;-64
2021/07/17 03:43:42;;;;;;;17.55;3.30;;;18.80;90.30;;;;;;5090312;28;20036;-64
2021/07/17 03:46:08;;;;;;;15.77;3.85;;;18.80;90.20;;;;;;5091130;28;20605;-64
2021/07/17 03:48:34;;;;;;;16.58;3.25;;;18.80;90.20;;;;;;5091344;28;20050;-64
2021/07/17 03:50:59;;;;;;;18.15;4.35;;;18.80;90.30;;;;;;5090867;28;20039;-64
2021/07/17 03:53:25;;;;;;;15.43;3.15;;;18.80;90.40;;;;;;5089136;28;20044;-64
2021/07/17 03:55:51;;;;;;;14.88;4.10;;;18.80;90.20;;;;;;5091418;28;20035;-64
2021/07/17 03:58:17;;;;;;;13.68;3.70;;;18.80;90.20;;;;;;5073622;28;20035;-64
2021/07/17 04:00:43;;;;;;;15.65;3.17;;;18.80;90.20;;;;;;5076466;28;20056;-65
2021/07/17 04:03:08;;;;;;;16.90;3.88;;;18.80;90.20;;;;;;5089937;28;20048;-64
2021/07/17 04:05:35;;;;;;;10.43;3.17;;;18.80;90.20;;;;;;5088549;28;20036;-65
2021/07/17 04:08:00;;;;;;;13.05;4.20;;;18.80;90.20;;;;;;5071796;28;20081;-64
2021/07/17 04:10:26;;;;;;;13.45;3.10;;;18.80;90.40;;;;;;5076624;28;20040;-63
2021/07/17 04:12:52;;;;;;;27.27;4.90;;;18.80;90.20;;;;;;5091483;28;20488;-63
2021/07/17 04:15:18;;;;;;;14.70;3.85;;;18.80;90.00;;;;;;5076047;28;20040;-63
2021/07/17 04:17:44;;;;;;;16.40;3.17;;;18.80;90.00;;;;;;5095378;28;20556;-63
2021/07/17 04:20:10;;;;;;;13.00;3.50;;;18.80;89.70;;;;;;5096925;28;20058;-63
2021/07/17 04:22:36;;;;;;;20.75;3.88;;;18.80;90.00;;;;;;5092541;28;20075;-63
2021/07/17 04:25:04;;;;;;;13.48;3.30;;;18.80;90.00;;;;;;5065220;28;20104;-64
2021/07/17 04:27:30;;;;;;;14.40;3.28;;;18.90;90.00;;;;;;5093613;28;20119;-63
2021/07/17 04:29:55;;;;;;;13.88;2.95;;;18.90;90.00;;;;;;5094847;28;20118;-63
2021/07/17 04:32:21;;;;;;;13.30;3.55;;;18.90;89.40;;;;;;5094364;28;20032;-63
2021/07/17 04:34:48;;;;;;;15.20;3.22;;;18.90;89.70;;;;;;5075030;28;20043;-63
2021/07/17 04:37:18;;;;;;;16.23;3.92;;;18.90;90.00;;;;;;5075612;28;20041;-63
2021/07/17 04:39:45;;;;;;;14.57;3.17;;;19.00;90.20;;;;;;5096346;28;20040;-63
2021/07/17 04:42:11;;;;;;;12.02;3.47;;;19.00;89.80;;;;;;5073616;28;20407;-64
2021/07/17 04:44:37;;;;;;;10.32;3.00;;;19.10;89.50;;;;;;5093034;28;20039;-63
2021/07/17 04:47:03;;;;;;;13.40;3.00;;;19.10;89.70;;;;;;5075854;28;20530;-63
2021/07/17 04:49:29;;;;;;;12.85;2.78;;;19.10;89.40;;;;;;5077104;28;20044;-63
2021/07/17 04:51:54;;;;;;;11.43;2.95;;;19.10;89.10;;;;;;5093098;28;20467;-63
2021/07/17 04:54:20;;;;;;;12.88;3.13;;;19.10;89.10;;;;;;5092995;28;20044;-63
2021/07/17 04:56:46;;;;;;;15.77;2.92;;;19.10;88.80;;;;;;5093123;28;20040;-64
2021/07/17 04:59:12;;;;;;;16.77;3.00;;;19.10;88.60;;;;;;5096404;28;20593;-64
2021/07/17 05:01:38;;;;;;;14.02;3.22;;;19.10;88.80;;;;;;5092212;28;20058;-64
2021/07/17 05:04:03;;;;;;;17.77;3.08;;;19.10;88.80;;;;;;5057856;28;20131;-64
2021/07/17 05:06:29;;;;;;;13.73;3.15;;;19.10;88.70;;;;;;5093301;28;20114;-64
2021/07/17 05:08:55;;;;;;;10.93;3.30;;;19.10;88.60;;;;;;5095091;28;21255;-64
2021/07/17 05:11:21;;;;;;;10.20;3.28;;;19.20;88.40;;;;;;5092929;28;20036;-63
2021/07/17 05:13:46;;;;;;;10.48;2.80;;;19.20;88.20;;;;;;5074959;28;20036;-63
2021/07/17 05:16:12;;;;;;;14.10;3.47;;;19.20;88.20;;;;;;5063506;28;20084;-65
2021/07/17 05:18:38;;;;;;;21.35;4.20;;;19.20;88.30;;;;;;5077342;28;20040;-65
2021/07/17 05:21:04;;;;;;;10.75;3.28;;;19.20;88.10;;;;;;5092502;28;20043;-65
2021/07/17 05:23:29;;;;;;;17.35;4.13;;;19.20;88.10;;;;;;5094057;28;20038;-64
2021/07/17 05:25:55;;;;;;;12.50;3.40;;;19.20;88.40;;;;;;5092110;28;20062;-65
2021/07/17 05:28:22;;;;;;;14.43;3.15;;;19.20;88.50;;;;;;5093715;28;20036;-65
2021/07/17 05:30:49;;;;;;;14.88;2.70;;;19.30;88.80;;;;;;5093133;28;20070;-65
2021/07/17 05:33:15;;;;;;;12.98;3.40;;;19.30;88.70;;;;;;5078566;28;20043;-64
2021/07/17 05:35:42;;;;;;;18.98;3.85;;;19.30;88.30;;;;;;5076446;28;20491;-64
2021/07/17 05:38:08;;;;;;;15.10;3.30;;;19.40;88.10;;;;;;5077005;28;20040;-65
2021/07/17 05:40:33;;;;;;;11.23;3.25;;;19.40;88.00;;;;;;5092899;28;20056;-64
2021/07/17 05:42:59;;;;;;;15.15;3.70;;;19.40;87.90;;;;;;5093148;28;20127;-64
2021/07/17 05:45:25;;;;;;;12.93;3.67;;;19.40;87.80;;;;;;5092467;28;20117;-64
2021/07/17 05:47:51;;;;;;;15.60;3.47;;;19.40;87.80;;;;;;5093014;28;20035;-64
2021/07/17 05:50:18;;;;;;;13.25;3.00;;;19.50;87.70;;;;;;5093245;28;20056;-67
2021/07/17 05:52:45;;;;;;;10.82;2.75;;;19.50;87.70;;;;;;5072807;28;20172;-65
2021/07/17 05:55:12;;;;;;;10.20;3.05;;;19.50;87.60;;;;;;5092453;28;20123;-65
2021/07/17 05:57:38;;;;;;;10.52;3.25;;;19.60;87.30;;;;;;5094214;28;20043;-65
2021/07/17 06:00:08;;;;;;;10.43;3.00;;;19.60;87.60;;;;;;5092530;28;20070;-64
2021/07/17 06:02:34;;;;;;;14.65;3.28;;;19.60;86.80;;;;;;5094344;28;20380;-65
2021/07/17 06:05:00;;;;;;;13.20;2.85;;;19.70;86.70;;;;;;5093283;28;20047;-66
2021/07/17 06:07:26;;;;;;;13.45;3.00;;;19.70;86.80;;;;;;5074479;28;20031;-65
2021/07/17 06:09:52;;;;;;;12.35;2.80;;;19.70;86.30;;;;;;5092102;28;20032;-66
2021/07/17 06:12:17;;;;;;;14.77;3.15;;;19.80;86.50;;;;;;5089066;28;20071;-64
2021/07/17 06:14:43;;;;;;;15.00;2.53;;;19.80;86.20;;;;;;5093977;28;20150;-62
2021/07/17 06:17:12;;;;;;;10.82;2.30;;;19.70;85.60;;;;;;5094472;28;20115;-60
2021/07/17 06:19:40;;;;;;;14.70;3.60;;;19.80;85.30;;;;;;5092642;28;20028;-64
2021/07/17 06:22:06;;;;;;;11.85;3.30;;;19.80;85.70;;;;;;5091848;28;20071;-64
2021/07/17 06:24:32;;;;;;;12.25;2.78;;;19.80;85.40;;;;;;5092496;28;20040;-65
2021/07/17 06:26:58;;;;;;;15.98;2.75;;;19.90;85.10;;;;;;5094104;28;20044;-65
2021/07/17 06:29:23;;;;;;;11.35;2.85;;;20.00;84.90;;;;;;5091865;28;20500;-65
2021/07/17 06:31:49;;;;;;;13.98;3.22;;;20.00;84.20;;;;;;5090863;28;20032;-65
2021/07/17 06:34:15;;;;;;;10.93;2.70;;;20.10;84.10;;;;;;5075275;28;20043;-65
2021/07/17 06:36:41;;;;;;;12.10;2.75;;;20.10;83.90;;;;;;5093911;28;20043;-65
2021/07/17 06:39:07;;;;;;;9.90;2.60;;;20.10;83.40;;;;;;5074323;28;20046;-65
2021/07/17 06:41:33;;;;;;;16.33;3.55;;;20.10;83.50;;;;;;5091823;28;20035;-66
2021/07/17 06:43:59;;;;;;;13.95;2.90;;;20.20;83.40;;;;;;5073771;28;20821;-65
2021/07/17 06:46:25;;;;;;;11.15;2.55;;;20.30;83.40;;;;;;5091111;28;20527;-65
2021/07/17 06:48:50;;;;;;;14.10;3.30;;;20.40;83.00;;;;;;5092104;28;20054;-66
2021/07/17 06:51:16;;;;;;;14.25;3.55;;;20.50;83.10;;;;;;5090239;28;20101;-62
2021/07/17 06:53:42;;;;;;;9.45;2.55;;;20.70;82.80;;;;;;5090835;28;20032;-62
2021/07/17 06:56:08;;;;;;;11.10;2.53;;;20.90;81.90;;;;;;5091353;28;20032;-63
2021/07/17 06:58:33;;;;;;;11.00;2.65;;;21.20;81.60;;;;;;5066961;28;20107;-62
2021/07/17 07:01:00;;;;;;;15.93;3.45;;;21.40;80.50;;;;;;5059973;28;20040;-62
2021/07/17 07:03:25;;;;;;;10.00;2.13;;;21.60;80.10;;;;;;5089639;28;21038;-62
2021/07/17 07:05:51;;;;;;;14.30;3.25;;;21.70;79.50;;;;;;5091494;28;20036;-63
2021/07/17 07:08:17;;;;;;;14.23;3.65;;;22.00;79.20;;;;;;5088484;28;20035;-63
2021/07/17 07:10:43;;;;;;;11.90;2.58;;;22.10;78.20;;;;;;5091341;28;20055;-63
2021/07/17 07:13:14;;;;;;;12.45;2.40;;;22.20;77.70;;;;;;5092758;28;20050;-63
2021/07/17 07:15:40;;;;;;;11.93;2.33;;;22.30;77.60;;;;;;5089468;28;20583;-63
2021/07/17 07:18:06;;;;;;;10.23;2.10;;;22.50;77.20;;;;;;5089244;28;20555;-63
2021/07/17 07:20:33;;;;;;;12.65;2.72;;;22.70;76.80;;;;;;5089928;28;20075;-63
2021/07/17 07:22:59;;;;;;;12.20;2.17;;;22.80;75.90;;;;;;5061037;28;20545;-62
2021/07/17 07:25:25;;;;;;;10.35;2.55;;;23.00;76.20;;;;;;5089888;28;20035;-62
2021/07/17 07:27:51;;;;;;;12.20;2.50;;;23.20;74.90;;;;;;5065344;28;20090;-62
2021/07/17 07:30:17;;;;;;;8.85;2.25;;;23.40;74.50;;;;;;5055628;28;20076;-64
2021/07/17 07:32:45;;;;;;;11.73;2.20;;;23.60;74.30;;;;;;5073434;28;20046;-63
2021/07/17 07:35:11;;;;;;;12.43;2.90;;;23.70;73.40;;;;;;5089876;28;20032;-62
2021/07/17 07:37:37;;;;;;;10.85;2.75;;;23.90;72.90;;;;;;5089530;28;20040;-64
2021/07/17 07:40:04;;;;;;;8.30;2.45;;;24.00;72.70;;;;;;5071979;28;20049;-62
2021/07/17 07:42:30;;;;;;;10.48;3.13;;;24.20;72.10;;;;;;5089523;28;20039;-62
2021/07/17 07:44:56;;;;;;;8.27;2.50;;;24.30;71.80;;;;;;5090680;28;20613;-63
2021/07/17 07:47:23;;;;;;;15.48;2.78;;;24.40;71.60;;;;;;5042271;28;20235;-62
2021/07/17 07:49:49;;;;;;;7.07;1.92;;;24.40;71.30;;;;;;5085395;28;20036;-63
2021/07/17 07:52:15;;;;;;;9.13;2.70;;;24.50;71.10;;;;;;5090224;28;20065;-63
2021/07/17 07:54:40;;;;;;;11.48;2.75;;;24.60;70.50;;;;;;5087167;28;20040;-64
2021/07/17 07:57:06;;;;;;;8.45;2.40;;;24.70;70.30;;;;;;5072681;28;20044;-62
2021/07/17 07:59:32;;;;;;;7.75;2.55;;;24.80;70.30;;;;;;5086157;28;20036;-61
2021/07/17 08:01:58;;;;;;;8.32;2.78;;;24.90;69.90;;;;;;5084956;28;20082;-62
2021/07/17 08:04:24;;;;;;;10.95;2.80;;;25.00;69.60;;;;;;5088418;28;20032;-62
2021/07/17 08:06:49;;;;;;;8.57;2.60;;;25.10;69.30;;;;;;5086113;28;20500;-63
2021/07/17 08:09:15;;;;;;;7.72;1.80;;;25.30;69.10;;;;;;5086623;28;20054;-62
2021/07/17 08:11:41;;;;;;;10.15;2.40;;;25.30;68.80;;;;;;5086440;28;20032;-63
2021/07/17 08:14:07;;;;;;;7.45;2.45;;;25.30;68.30;;;;;;5089768;28;20047;-62
2021/07/17 08:16:33;;;;;;;11.13;2.00;;;25.30;68.10;;;;;;5086523;28;20499;-62
2021/07/17 08:18:58;;;;;;;11.82;3.22;;;25.40;67.50;;;;;;5060495;28;20036;-62
2021/07/17 08:21:24;;;;;;;12.85;2.85;;;25.30;67.50;;;;;;5060211;28;20052;-62
2021/07/17 08:23:50;;;;;;;7.13;1.98;;;25.40;67.50;;;;;;5050532;28;20534;-61
2021/07/17 08:26:17;;;;;;;13.25;2.88;;;25.50;67.70;;;;;;5087458;28;20028;-61
2021/07/17 08:28:42;;;;;;;7.45;2.00;;;25.50;67.30;;;;;;5085325;28;21007;-61
2021/07/17 08:31:08;;;;;;;13.05;2.50;;;25.60;65.50;;;;;;5070020;28;20083;-61
2021/07/17 08:33:34;;;;;;;10.73;2.88;;;25.70;65.00;;;;;;5089570;28;20122;-62
2021/07/17 08:36:00;;;;;;;31.50;24.08;;;25.80;64.70;;;;;;5070414;28;20841;-61
2021/07/17 08:38:26;;;;;;;28.48;18.60;;;25.80;64.30;;;;;;5064545;28;20036;-62
2021/07/17 08:40:54;;;;;;;9.55;3.97;;;25.90;64.40;;;;;;5087457;28;20048;-61
2021/07/17 08:43:21;;;;;;;7.72;3.20;;;26.00;64.30;;;;;;5087354;28;20040;-62
2021/07/17 08:45:48;;;;;;;8.27;3.13;;;26.10;64.00;;;;;;5086086;28;20032;-62
2021/07/17 08:48:14;;;;;;;13.60;3.50;;;26.10;63.30;;;;;;5063128;28;20039;-62
2021/07/17 08:50:40;;;;;;;9.43;2.00;;;26.00;63.40;;;;;;5087138;28;20035;-62
2021/07/17 08:53:07;;;;;;;7.60;2.45;;;26.00;63.20;;;;;;5086694;28;20044;-62
2021/07/17 08:55:33;;;;;;;10.73;2.95;;;26.10;63.40;;;;;;5052521;28;20036;-62
2021/07/17 08:58:00;;;;;;;10.75;2.88;;;26.30;63.00;;;;;;5086611;28;20063;-62
2021/07/17 09:00:28;;;;;;;7.13;1.98;;;26.40;62.50;;;;;;5089996;28;20060;-62
2021/07/17 09:03:03;;;;;;;10.02;2.53;;;26.40;62.20;;;;;;5093341;28;20119;-62
2021/07/17 09:05:32;;;;;;;6.70;1.90;;;26.40;62.10;;;;;;5095524;28;20089;-61
2021/07/17 09:07:58;;;;;;;7.72;2.13;;;26.50;61.80;;;;;;5088922;28;20096;-62
2021/07/17 09:10:45;;;;;;;8.98;2.50;;;26.50;61.30;;;;;;5088949;28;20028;-63
2021/07/17 09:13:37;;;;;;;11.75;2.42;;;26.50;61.20;;;;;;5072504;28;20032;-62
2021/07/17 09:16:06;;;;;;;5.18;1.63;;;26.50;61.10;;;;;;5086010;28;22349;-62
2021/07/17 09:18:46;;;;;;;7.80;1.63;;;26.50;60.60;;;;;;5091039;28;20044;-62
2021/07/17 09:21:15;;;;;;;10.27;1.80;;;26.40;60.70;;;;;;5089489;28;20123;-62
2021/07/17 09:23:50;;;;;;;7.15;2.03;;;26.50;60.80;;;;;;5090203;28;20059;-63
2021/07/17 09:26:18;;;;;;;5.93;2.00;;;26.50;60.40;;;;;;5090244;28;20514;-66
2021/07/17 09:28:55;;;;;;;6.90;1.60;;;26.50;60.00;;;;;;5070243;28;20078;-67
2021/07/17 09:31:22;;;;;;;6.38;1.75;;;26.50;59.80;;;;;;5091057;28;20035;-67
2021/07/17 09:33:50;;;;;;;5.03;1.58;;;26.50;59.30;;;;;;5092218;28;20649;-68
2021/07/17 09:36:17;;;;;;;7.35;1.95;;;26.50;59.30;;;;;;5089695;28;20035;-68
2021/07/17 09:38:51;;;;;;;4.75;1.48;;;26.50;59.00;;;;;;5090605;28;20043;-68
2021/07/17 09:41:19;;;;;;;4.85;1.70;;;26.50;59.40;;;;;;5061964;28;20075;-69
2021/07/17 09:43:45;;;;;;;4.40;1.80;;;26.40;59.10;;;;;;5089673;28;20082;-69
2021/07/17 09:46:20;;;;;;;5.10;1.75;;;26.50;59.20;;;;;;5089461;28;20040;-69
2021/07/17 09:48:56;;;;;;;7.95;1.30;;;26.70;59.00;;;;;;5091825;28;20035;-71
2021/07/17 09:51:28;;;;;;;7.45;1.63;;;26.80;59.00;;;;;;5090367;28;20055;-68
2021/07/17 09:54:01;;;;;;;4.85;1.35;;;26.80;58.80;;;;;;5089580;28;20037;-66
2021/07/17 09:56:27;;;;;;;;;;;26.90;58.90;;;;;;5089847;28;20039;-65
2021/07/17 09:58:57;;;;;;;7.43;1.65;;;27.00;59.70;;;;;;5088763;28;19966;-64
2021/07/17 10:01:41;;;;;;;5.25;1.38;;;26.90;58.70;;;;;;5087974;28;20158;-61
2021/07/17 10:04:09;;;;;;;3.92;1.20;;;26.90;58.50;;;;;;5089481;28;20059;-62
2021/07/17 10:07:01;;;;;;;5.97;1.35;;;26.80;58.80;;;;;;5090928;28;20040;-61
2021/07/17 10:09:29;;;;;;;7.72;1.38;;;26.90;58.60;;;;;;5089424;28;20059;-65
2021/07/17 10:12:05;;;;;;;6.00;1.48;;;26.80;58.50;;;;;;5068434;28;20043;-65
2021/07/17 10:14:33;;;;;;;6.40;1.35;;;26.70;58.70;;;;;;5090190;28;20071;-65
2021/07/17 10:17:07;;;;;;;3.85;1.45;;;26.70;58.80;;;;;;5088244;28;20484;-62
2021/07/17 10:19:34;;;;;;;5.47;1.42;;;26.80;58.90;;;;;;5087581;28;20040;-62
2021/07/17 10:22:01;;;;;;;9.85;2.40;;;26.80;58.40;;;;;;5088626;28;20414;-62
2021/07/17 10:24:27;;;;;;;4.38;1.60;;;26.80;58.60;;;;;;5089160;28;20124;-62
2021/07/17 10:26:54;;;;;;;5.72;1.40;;;26.80;59.10;;;;;;5070456;28;20035;-62
2021/07/17 10:29:22;;;;;;;6.07;1.55;;;26.90;59.00;;;;;;5088387;28;20089;-62
2021/07/17 10:31:49;;;;;;;6.57;1.58;;;27.10;59.10;;;;;;5087900;28;20381;-62
2021/07/17 10:34:17;;;;;;;8.68;1.42;;;27.10;58.50;;;;;;5087894;28;20044;-62
2021/07/17 10:37:02;;;;;;;5.25;1.63;;;27.10;58.10;;;;;;5086109;28;20119;-62
2021/07/17 10:39:34;;;;;;;2.47;1.40;;;27.00;58.80;;;;;;5088236;28;20602;-62
2021/07/17 10:42:09;;;;;;;5.17;1.27;;;27.00;59.00;;;;;;5086956;28;20962;-62
2021/07/17 10:44:43;;;;;;;5.20;1.20;;;27.10;58.70;;;;;;5088458;28;20035;-62
2021/07/17 10:47:10;;;;;;;8.32;1.10;;;27.00;59.00;;;;;;5088211;28;20051;-62
2021/07/17 10:49:45;;;;;;;8.02;1.73;;;27.00;59.20;;;;;;5088756;28;20040;-62
2021/07/17 10:52:11;;;;;;;6.60;1.83;;;27.00;58.80;;;;;;5088776;28;20036;-62
2021/07/17 10:54:38;;;;;;;3.30;1.08;;;27.00;58.70;;;;;;5088488;28;20089;-62
2021/07/17 10:57:05;;;;;;;8.63;1.85;;;26.80;58.40;;;;;;5088121;28;20175;-62
2021/07/17 10:59:30;;;;;;;5.82;1.90;;;26.60;59.20;;;;;;5088744;28;20036;-62
2021/07/17 11:02:02;;;;;;;6.90;1.35;;;26.60;59.80;;;;;;5088993;28;20479;-62
2021/07/17 11:04:38;;;;;;;8.77;1.73;;;26.50;59.80;;;;;;5087940;28;20035;-63
2021/07/17 11:07:16;;;;;;;5.55;1.58;;;26.30;60.20;;;;;;5088600;28;20032;-62
2021/07/17 11:09:55;;;;;;;6.88;1.63;;;26.30;60.50;;;;;;5069597;28;20034;-65
2021/07/17 11:12:25;;;;;;;6.95;1.70;;;26.30;60.40;;;;;;5089040;28;20620;-65
2021/07/17 11:14:51;;;;;;;5.97;1.33;;;26.10;60.50;;;;;;5062040;28;20045;-65
2021/07/17 11:17:46;;;;;;;6.97;1.42;;;26.10;60.80;;;;;;5070677;28;20114;-65
2021/07/17 11:20:31;;;;;;;3.65;1.27;;;26.00;60.30;;;;;;5078478;28;20035;-65
2021/07/17 11:23:00;;;;;;;5.68;1.48;;;25.90;60.80;;;;;;5086967;28;20039;-65
2021/07/17 11:25:25;;;;;;;5.95;1.38;;;25.80;61.20;;;;;;5087813;28;20046;-65
2021/07/17 11:27:51;;;;;;;4.28;1.17;;;25.70;61.60;;;;;;5087477;28;20574;-65
2021/07/17 11:30:19;;;;;;;6.68;1.67;;;25.60;61.50;;;;;;5069014;28;20043;-65
2021/07/17 11:33:04;;;;;;;5.68;1.20;;;25.70;61.40;;;;;;5087174;28;20120;-65
2021/07/17 11:35:30;;;;;;;4.50;1.38;;;25.70;61.60;;;;;;5059520;28;20042;-65
2021/07/17 11:37:56;;;;;;;5.03;1.80;;;25.70;61.10;;;;;;5087121;28;20148;-65
2021/07/17 11:40:23;;;;;;;5.53;1.50;;;25.70;61.40;;;;;;5068349;28;20036;-64
2021/07/17 11:42:49;;;;;;;5.55;1.83;;;25.70;61.60;;;;;;5088387;28;20047;-65
2021/07/17 11:45:15;;;;;;;9.15;2.38;;;25.80;61.80;;;;;;5090617;28;20035;-65
2021/07/17 11:47:41;;;;;;;7.55;1.88;;;25.70;61.20;;;;;;5069378;28;20051;-65
2021/07/17 11:50:08;;;;;;;14.60;2.00;;;25.60;61.30;;;;;;5089109;28;20467;-64
2021/07/17 11:52:36;;;;;;;6.93;1.40;;;25.60;61.60;;;;;;5086438;28;20054;-65
2021/07/17 11:55:07;;;;;;;5.05;1.48;;;25.60;61.50;;;;;;5086434;28;20054;-66
2021/07/17 11:57:45;;;;;;;5.95;1.88;;;25.70;61.60;;;;;;5087917;28;20062;-66
2021/07/17 12:00:15;;;;;;;7.88;1.83;;;25.80;62.10;;;;;;5089322;28;20067;-66
2021/07/17 12:02:41;;;;;;;4.95;1.13;;;25.90;61.20;;;;;;5088711;28;20052;-67
2021/07/17 12:05:10;;;;;;;4.28;1.55;;;26.00;60.60;;;;;;5087909;28;20156;-67
2021/07/17 12:07:38;;;;;;;4.05;2.40;;;26.10;60.50;;;;;;5087295;28;20036;-66
2021/07/17 12:10:13;;;;;;;6.50;1.83;;;26.10;60.00;;;;;;5088248;28;20040;-66
2021/07/17 12:12:51;;;;;;;6.07;1.80;;;26.10;60.60;;;;;;5088919;28;20063;-67
2021/07/17 12:15:28;;;;;;;5.57;1.45;;;26.10;60.30;;;;;;5069178;28;20063;-66
2021/07/17 12:17:58;;;;;;;4.57;1.02;;;26.10;60.00;;;;;;5086177;28;20043;-66
2021/07/17 12:20:39;;;;;;;5.00;1.30;;;26.00;59.30;;;;;;5087500;28;20039;-66
2021/07/17 12:23:13;;;;;;;2.50;1.27;;;26.00;60.00;;;;;;5087617;28;20491;-63
2021/07/17 12:25:46;;;;;;;5.00;1.52;;;26.00;60.70;;;;;;5061134;28;20047;-66
2021/07/17 12:28:36;;;;;;;4.13;1.42;;;26.00;60.50;;;;;;5087808;28;20035;-66
2021/07/17 12:31:10;;;;;;;4.70;1.50;;;26.10;61.20;;;;;;5086782;28;20035;-66
2021/07/17 12:33:42;;;;;;;5.85;1.50;;;26.10;61.00;;;;;;5087945;28;20040;-66
2021/07/17 12:36:14;;;;;;;7.38;1.60;;;26.00;60.50;;;;;;5092112;28;20044;-66
2021/07/17 12:38:51;;;;;;;8.25;1.85;;;26.00;60.80;;;;;;5063349;28;20028;-65
2021/07/17 12:41:29;;;;;;;4.97;1.05;;;26.00;60.30;;;;;;5091028;28;20036;-65
2021/07/17 12:43:58;;;;;;;6.57;1.80;;;26.00;60.20;;;;;;5092952;28;20035;-64